sensor_id;sensor_type;location;lat;lon;timestamp;pressure;altitude;pressure_sealevel;temperature;humidity
49627;BME280;35527;54.616;39.786;2023-01-16T00:02:35;100584.38;;;-6.36;100.00
49627;BME280;35527;54.616;39.786;2023-01-16T00:05:38;100586.75;;;-6.39;100.00
49627;BME280;35527;54.616;39.786;2023-01-16T00:08:43;100621.38;;;-6.35;100.00
49627;BME280;35527;54.616;39.786;2023-01-16T00:11:49;100587.09;;;-6.31;100.00
49627;BME280;35527;54.616;39.786;2023-01-16T00:14:54;100580.53;;;-6.47;100.00
49627;BME280;35527;54.616;39.786;2023-01-16T00:17:58;100582.63;;;-6.58;100.00
49627;BME280;35527;54.616;39.786;2023-01-16T00:21:01;100565.50;;;-6.66;100.00
49627;BME280;35527;54.616;39.786;2023-01-16T00:24:31;100592.16;;;-6.50;100.00
49627;BME280;35527;54.616;39.786;2023-01-16T00:27:34;100575.38;;;-6.50;100.00
49627;BME280;35527;54.616;39.786;2023-01-16T00:30:37;100599.78;;;-6.49;100.00
49627;BME280;35527;54.616;39.786;2023-01-16T00:33:42;100590.63;;;-6.47;100.00
49627;BME280;35527;54.616;39.786;2023-01-16T00:36:47;100558.78;;;-6.66;100.00
49627;BME280;35527;54.616;39.786;2023-01-16T00:39:52;100576.59;;;-6.61;100.00
49627;BME280;35527;54.616;39.786;2023-01-16T00:43:21;100608.66;;;-6.57;100.00
49627;BME280;35527;54.616;39.786;2023-01-16T00:46:25;100586.06;;;-6.55;100.00
49627;BME280;35527;54.616;39.786;2023-01-16T00:49:28;100580.59;;;-6.66;100.00
49627;BME280;35527;54.616;39.786;2023-01-16T00:52:31;100560.28;;;-6.50;100.00
49627;BME280;35527;54.616;39.786;2023-01-16T00:55:35;100576.78;;;-6.37;100.00
49627;BME280;35527;54.616;39.786;2023-01-16T00:58:43;100572.44;;;-6.61;100.00
49627;BME280;35527;54.616;39.786;2023-01-16T01:01:45;100589.97;;;-6.62;100.00
49627;BME280;35527;54.616;39.786;2023-01-16T01:04:50;100573.94;;;-6.64;100.00
49627;BME280;35527;54.616;39.786;2023-01-16T01:07:52;100556.53;;;-6.60;100.00
49627;BME280;35527;54.616;39.786;2023-01-16T01:10:57;100555.69;;;-6.60;100.00
49627;BME280;35527;54.616;39.786;2023-01-16T01:14:04;100558.72;;;-6.67;100.00
49627;BME280;35527;54.616;39.786;2023-01-16T01:17:08;100551.97;;;-6.88;100.00
49627;BME280;35527;54.616;39.786;2023-01-16T01:20:12;100574.25;;;-6.77;100.00
49627;BME280;35527;54.616;39.786;2023-01-16T01:23:18;100578.13;;;-6.84;100.00
49627;BME280;35527;54.616;39.786;2023-01-16T01:26:21;100554.88;;;-6.78;100.00
49627;BME280;35527;54.616;39.786;2023-01-16T01:29:49;100560.16;;;-6.72;100.00
49627;BME280;35527;54.616;39.786;2023-01-16T01:32:52;100561.06;;;-6.72;100.00
49627;BME280;35527;54.616;39.786;2023-01-16T01:35:57;100552.22;;;-6.62;100.00
49627;BME280;35527;54.616;39.786;2023-01-16T01:39:01;100551.59;;;-6.77;100.00
49627;BME280;35527;54.616;39.786;2023-01-16T01:42:10;100557.53;;;-6.75;100.00
49627;BME280;35527;54.616;39.786;2023-01-16T01:45:37;100538.53;;;-6.69;100.00
49627;BME280;35527;54.616;39.786;2023-01-16T01:48:42;100548.91;;;-6.61;100.00
49627;BME280;35527;54.616;39.786;2023-01-16T01:52:13;100556.56;;;-6.58;100.00
49627;BME280;35527;54.616;39.786;2023-01-16T01:55:16;100525.75;;;-6.73;100.00
49627;BME280;35527;54.616;39.786;2023-01-16T01:58:22;100510.53;;;-6.76;100.00
49627;BME280;35527;54.616;39.786;2023-01-16T02:01:30;100506.28;;;-6.77;100.00
49627;BME280;35527;54.616;39.786;2023-01-16T02:04:39;100530.28;;;-6.86;100.00
49627;BME280;35527;54.616;39.786;2023-01-16T02:07:45;100523.44;;;-6.88;100.00
49627;BME280;35527;54.616;39.786;2023-01-16T02:10:51;100496.28;;;-6.95;100.00
49627;BME280;35527;54.616;39.786;2023-01-16T02:14:05;100492.06;;;-6.96;100.00
49627;BME280;35527;54.616;39.786;2023-01-16T02:17:14;100506.78;;;-6.86;100.00
49627;BME280;35527;54.616;39.786;2023-01-16T02:24:14;100516.16;;;-6.82;100.00
49627;BME280;35527;54.616;39.786;2023-01-16T02:34:51;100536.75;;;-6.71;100.00
49627;BME280;35527;54.616;39.786;2023-01-16T02:38:25;100516.88;;;-6.85;100.00
49627;BME280;35527;54.616;39.786;2023-01-16T02:44:51;100511.47;;;-6.74;100.00
49627;BME280;35527;54.616;39.786;2023-01-16T02:48:24;100501.06;;;-6.82;100.00
49627;BME280;35527;54.616;39.786;2023-01-16T02:51:43;100513.72;;;-6.81;100.00
49627;BME280;35527;54.616;39.786;2023-01-16T02:55:03;100517.31;;;-6.54;100.00
49627;BME280;35527;54.616;39.786;2023-01-16T02:58:17;100499.25;;;-6.65;100.00
49627;BME280;35527;54.616;39.786;2023-01-16T03:01:22;100503.72;;;-6.58;100.00
49627;BME280;35527;54.616;39.786;2023-01-16T03:04:46;100508.59;;;-6.63;100.00
49627;BME280;35527;54.616;39.786;2023-01-16T03:08:12;100508.63;;;-6.61;100.00
49627;BME280;35527;54.616;39.786;2023-01-16T03:11:22;100506.41;;;-6.74;100.00
49627;BME280;35527;54.616;39.786;2023-01-16T03:24:35;100491.50;;;-6.70;100.00
49627;BME280;35527;54.616;39.786;2023-01-16T03:37:54;100494.44;;;-6.80;100.00
49627;BME280;35527;54.616;39.786;2023-01-16T03:41:05;100488.16;;;-6.90;100.00
49627;BME280;35527;54.616;39.786;2023-01-16T03:44:21;100494.56;;;-6.77;100.00
49627;BME280;35527;54.616;39.786;2023-01-16T03:47:38;100472.56;;;-6.81;100.00
49627;BME280;35527;54.616;39.786;2023-01-16T03:50:49;100478.50;;;-6.60;100.00
49627;BME280;35527;54.616;39.786;2023-01-16T03:55:17;100488.78;;;-6.55;100.00
49627;BME280;35527;54.616;39.786;2023-01-16T03:57:59;100459.06;;;-6.64;100.00
49627;BME280;35527;54.616;39.786;2023-01-16T04:01:15;100480.59;;;-6.49;100.00
49627;BME280;35527;54.616;39.786;2023-01-16T04:07:44;100458.91;;;-6.67;100.00
49627;BME280;35527;54.616;39.786;2023-01-16T04:10:48;100466.66;;;-6.62;100.00
49627;BME280;35527;54.616;39.786;2023-01-16T04:14:22;100473.84;;;-6.71;100.00
49627;BME280;35527;54.616;39.786;2023-01-16T04:17:27;100466.97;;;-6.54;100.00
49627;BME280;35527;54.616;39.786;2023-01-16T04:20:31;100457.50;;;-6.60;100.00
49627;BME280;35527;54.616;39.786;2023-01-16T04:23:35;100454.81;;;-6.44;100.00
49627;BME280;35527;54.616;39.786;2023-01-16T04:26:42;100461.44;;;-6.46;100.00
49627;BME280;35527;54.616;39.786;2023-01-16T04:29:46;100465.66;;;-6.45;100.00
49627;BME280;35527;54.616;39.786;2023-01-16T04:32:50;100436.69;;;-6.56;100.00
49627;BME280;35527;54.616;39.786;2023-01-16T04:35:53;100458.69;;;-6.52;100.00
49627;BME280;35527;54.616;39.786;2023-01-16T04:38:58;100449.94;;;-6.39;100.00
49627;BME280;35527;54.616;39.786;2023-01-16T04:42:00;100453.16;;;-6.43;100.00
49627;BME280;35527;54.616;39.786;2023-01-16T04:45:04;100466.13;;;-6.55;100.00
49627;BME280;35527;54.616;39.786;2023-01-16T04:48:08;100465.22;;;-6.55;100.00
49627;BME280;35527;54.616;39.786;2023-01-16T04:51:14;100440.50;;;-6.66;100.00
49627;BME280;35527;54.616;39.786;2023-01-16T04:54:17;100436.25;;;-6.67;100.00
49627;BME280;35527;54.616;39.786;2023-01-16T04:57:21;100458.69;;;-6.52;100.00
49627;BME280;35527;54.616;39.786;2023-01-16T05:00:25;100460.38;;;-6.51;100.00
49627;BME280;35527;54.616;39.786;2023-01-16T05:03:30;100431.75;;;-6.53;100.00
49627;BME280;35527;54.616;39.786;2023-01-16T05:06:33;100450.56;;;-6.45;100.00
49627;BME280;35527;54.616;39.786;2023-01-16T05:09:36;100452.03;;;-6.50;100.00
49627;BME280;35527;54.616;39.786;2023-01-16T05:12:40;100446.34;;;-6.46;100.00
49627;BME280;35527;54.616;39.786;2023-01-16T05:16:12;100449.31;;;-6.33;100.00
49627;BME280;35527;54.616;39.786;2023-01-16T05:19:15;100445.09;;;-6.35;100.00
49627;BME280;35527;54.616;39.786;2023-01-16T05:22:17;100435.81;;;-6.36;100.00
49627;BME280;35527;54.616;39.786;2023-01-16T05:25:20;100414.53;;;-6.44;100.00
49627;BME280;35527;54.616;39.786;2023-01-16T05:28:25;100428.88;;;-6.41;100.00
49627;BME280;35527;54.616;39.786;2023-01-16T05:31:29;100409.31;;;-6.48;100.00
49627;BME280;35527;54.616;39.786;2023-01-16T05:34:33;100397.69;;;-6.45;100.00
49627;BME280;35527;54.616;39.786;2023-01-16T05:37:35;100418.91;;;-6.38;100.00
49627;BME280;35527;54.616;39.786;2023-01-16T05:40:40;100415.50;;;-6.40;100.00
49627;BME280;35527;54.616;39.786;2023-01-16T05:43:44;100410.47;;;-6.40;100.00
49627;BME280;35527;54.616;39.786;2023-01-16T05:46:47;100417.91;;;-6.43;100.00
49627;BME280;35527;54.616;39.786;2023-01-16T06:10:09;100400.75;;;-5.84;100.00
49627;BME280;35527;54.616;39.786;2023-01-16T06:13:14;100359.00;;;-6.24;100.00
49627;BME280;35527;54.616;39.786;2023-01-16T06:16:17;100413.88;;;-5.95;100.00
49627;BME280;35527;54.616;39.786;2023-01-16T06:19:26;100391.81;;;-6.00;100.00
49627;BME280;35527;54.616;39.786;2023-01-16T06:22:29;100400.38;;;-5.95;100.00
49627;BME280;35527;54.616;39.786;2023-01-16T06:25:35;100390.03;;;-6.03;100.00
49627;BME280;35527;54.616;39.786;2023-01-16T06:28:38;100394.63;;;-5.91;100.00
49627;BME280;35527;54.616;39.786;2023-01-16T06:31:43;100385.03;;;-6.01;100.00
49627;BME280;35527;54.616;39.786;2023-01-16T06:34:46;100402.47;;;-5.83;100.00
49627;BME280;35527;54.616;39.786;2023-01-16T06:37:49;100389.78;;;-5.86;100.00
49627;BME280;35527;54.616;39.786;2023-01-16T06:40:52;100397.09;;;-5.93;100.00
49627;BME280;35527;54.616;39.786;2023-01-16T06:44:01;100381.34;;;-5.87;100.00
49627;BME280;35527;54.616;39.786;2023-01-16T06:47:04;100403.19;;;-5.63;100.00
49627;BME280;35527;54.616;39.786;2023-01-16T06:50:10;100398.91;;;-5.66;100.00
49627;BME280;35527;54.616;39.786;2023-01-16T06:53:16;100411.53;;;-5.64;100.00
49627;BME280;35527;54.616;39.786;2023-01-16T06:56:21;100374.69;;;-5.61;100.00
49627;BME280;35527;54.616;39.786;2023-01-16T06:59:24;100410.97;;;-5.57;100.00
49627;BME280;35527;54.616;39.786;2023-01-16T07:02:28;100386.50;;;-5.60;100.00
49627;BME280;35527;54.616;39.786;2023-01-16T07:05:31;100367.31;;;-5.56;100.00
49627;BME280;35527;54.616;39.786;2023-01-16T07:08:37;100385.47;;;-5.41;100.00
49627;BME280;35527;54.616;39.786;2023-01-16T07:11:41;100327.44;;;-5.67;100.00
49627;BME280;35527;54.616;39.786;2023-01-16T07:14:46;100368.03;;;-5.59;100.00
49627;BME280;35527;54.616;39.786;2023-01-16T07:18:12;100359.03;;;-5.52;100.00
49627;BME280;35527;54.616;39.786;2023-01-16T07:21:40;100393.56;;;-5.26;100.00
49627;BME280;35527;54.616;39.786;2023-01-16T07:25:03;100377.81;;;-5.18;100.00
49627;BME280;35527;54.616;39.786;2023-01-16T07:28:11;100393.13;;;-5.14;100.00
49627;BME280;35527;54.616;39.786;2023-01-16T07:31:45;100368.16;;;-5.06;100.00
49627;BME280;35527;54.616;39.786;2023-01-16T07:34:50;100368.09;;;-5.08;100.00
49627;BME280;35527;54.616;39.786;2023-01-16T07:37:52;100368.66;;;-4.91;100.00
49627;BME280;35527;54.616;39.786;2023-01-16T07:41:21;100351.13;;;-4.86;100.00
49627;BME280;35527;54.616;39.786;2023-01-16T07:44:25;100376.19;;;-4.65;100.00
49627;BME280;35527;54.616;39.786;2023-01-16T07:47:35;100358.63;;;-4.61;100.00
49627;BME280;35527;54.616;39.786;2023-01-16T07:50:38;100369.72;;;-4.57;100.00
49627;BME280;35527;54.616;39.786;2023-01-16T07:53:44;100390.63;;;-4.61;100.00
49627;BME280;35527;54.616;39.786;2023-01-16T07:56:49;100372.34;;;-4.53;100.00
49627;BME280;35527;54.616;39.786;2023-01-16T07:59:53;100350.03;;;-4.67;100.00
49627;BME280;35527;54.616;39.786;2023-01-16T08:03:22;100348.31;;;-4.68;100.00
49627;BME280;35527;54.616;39.786;2023-01-16T08:06:53;100329.56;;;-4.77;100.00
49627;BME280;35527;54.616;39.786;2023-01-16T08:09:56;100346.34;;;-4.50;100.00
49627;BME280;35527;54.616;39.786;2023-01-16T08:12:59;100357.59;;;-4.40;100.00
49627;BME280;35527;54.616;39.786;2023-01-16T08:16:03;100342.28;;;-4.45;100.00
49627;BME280;35527;54.616;39.786;2023-01-16T08:19:35;100336.84;;;-4.30;100.00
49627;BME280;35527;54.616;39.786;2023-01-16T08:22:44;100339.53;;;-4.24;100.00
49627;BME280;35527;54.616;39.786;2023-01-16T08:25:49;100345.72;;;-4.43;100.00
49627;BME280;35527;54.616;39.786;2023-01-16T08:28:52;100361.75;;;-4.42;100.00
49627;BME280;35527;54.616;39.786;2023-01-16T08:31:58;100345.09;;;-4.36;100.00
49627;BME280;35527;54.616;39.786;2023-01-16T08:35:03;100338.44;;;-4.32;100.00
49627;BME280;35527;54.616;39.786;2023-01-16T08:38:06;100325.72;;;-4.35;100.00
49627;BME280;35527;54.616;39.786;2023-01-16T08:41:09;100315.94;;;-4.24;100.00
49627;BME280;35527;54.616;39.786;2023-01-16T08:44:32;100319.78;;;-4.07;100.00
49627;BME280;35527;54.616;39.786;2023-01-16T08:47:56;100302.75;;;-4.14;100.00
49627;BME280;35527;54.616;39.786;2023-01-16T08:51:20;100307.94;;;-4.10;100.00
49627;BME280;35527;54.616;39.786;2023-01-16T08:54:26;100311.44;;;-4.04;100.00
49627;BME280;35527;54.616;39.786;2023-01-16T08:57:28;100319.72;;;-4.10;100.00
49627;BME280;35527;54.616;39.786;2023-01-16T09:00:33;100318.53;;;-4.23;100.00
49627;BME280;35527;54.616;39.786;2023-01-16T09:03:36;100316.75;;;-4.25;100.00
49627;BME280;35527;54.616;39.786;2023-01-16T09:06:38;100307.13;;;-4.09;100.00
49627;BME280;35527;54.616;39.786;2023-01-16T09:09:42;100282.19;;;-4.26;100.00
49627;BME280;35527;54.616;39.786;2023-01-16T09:12:45;100312.03;;;-4.15;100.00
49627;BME280;35527;54.616;39.786;2023-01-16T09:16:11;100272.63;;;-4.07;100.00
49627;BME280;35527;54.616;39.786;2023-01-16T09:19:14;100299.56;;;-4.07;100.00
49627;BME280;35527;54.616;39.786;2023-01-16T09:22:20;100305.56;;;-4.03;100.00
49627;BME280;35527;54.616;39.786;2023-01-16T09:25:23;100299.66;;;-4.04;100.00
49627;BME280;35527;54.616;39.786;2023-01-16T09:28:27;100286.22;;;-4.03;100.00
49627;BME280;35527;54.616;39.786;2023-01-16T09:31:29;100302.13;;;-4.36;100.00
49627;BME280;35527;54.616;39.786;2023-01-16T09:34:36;100293.72;;;-4.36;100.00
49627;BME280;35527;54.616;39.786;2023-01-16T09:37:45;100275.78;;;-4.45;100.00
49627;BME280;35527;54.616;39.786;2023-01-16T09:40:55;100266.25;;;-4.24;100.00
49627;BME280;35527;54.616;39.786;2023-01-16T09:43:59;100317.44;;;-4.31;100.00
49627;BME280;35527;54.616;39.786;2023-01-16T09:47:08;100295.28;;;-4.40;100.00
49627;BME280;35527;54.616;39.786;2023-01-16T09:50:40;100277.63;;;-4.40;100.00
49627;BME280;35527;54.616;39.786;2023-01-16T09:54:16;100285.31;;;-4.35;100.00
49627;BME280;35527;54.616;39.786;2023-01-16T09:57:43;100289.41;;;-4.40;100.00
49627;BME280;35527;54.616;39.786;2023-01-16T10:04:21;100297.50;;;-4.22;100.00
49627;BME280;35527;54.616;39.786;2023-01-16T10:21:43;100278.56;;;-4.06;100.00
49627;BME280;35527;54.616;39.786;2023-01-16T10:25:06;100218.31;;;-4.21;100.00
49627;BME280;35527;54.616;39.786;2023-01-16T10:28:45;100262.34;;;-4.13;100.00
49627;BME280;35527;54.616;39.786;2023-01-16T10:35:32;100227.59;;;-4.21;100.00
49627;BME280;35527;54.616;39.786;2023-01-16T10:38:44;100230.50;;;-4.08;100.00
49627;BME280;35527;54.616;39.786;2023-01-16T10:41:55;100238.97;;;-4.05;100.00
49627;BME280;35527;54.616;39.786;2023-01-16T10:45:25;100254.38;;;-4.26;100.00
49627;BME280;35527;54.616;39.786;2023-01-16T10:48:49;100214.66;;;-4.32;100.00
49627;BME280;35527;54.616;39.786;2023-01-16T10:52:10;100189.22;;;-4.38;100.00
49627;BME280;35527;54.616;39.786;2023-01-16T10:55:13;100209.88;;;-4.23;100.00
49627;BME280;35527;54.616;39.786;2023-01-16T11:01:23;100206.00;;;-4.10;100.00
49627;BME280;35527;54.616;39.786;2023-01-16T11:04:35;100224.34;;;-3.84;100.00
49627;BME280;35527;54.616;39.786;2023-01-16T11:07:38;100200.34;;;-3.67;100.00
49627;BME280;35527;54.616;39.786;2023-01-16T11:10:46;100221.94;;;-3.46;100.00
49627;BME280;35527;54.616;39.786;2023-01-16T11:13:52;100223.09;;;-3.67;100.00
49627;BME280;35527;54.616;39.786;2023-01-16T11:17:38;100228.06;;;-3.71;100.00
49627;BME280;35527;54.616;39.786;2023-01-16T11:21:23;100232.38;;;-3.67;100.00
49627;BME280;35527;54.616;39.786;2023-01-16T11:24:34;100221.81;;;-3.86;100.00
49627;BME280;35527;54.616;39.786;2023-01-16T11:27:37;100254.69;;;-3.84;100.00
49627;BME280;35527;54.616;39.786;2023-01-16T11:30:45;100248.56;;;-3.94;100.00
49627;BME280;35527;54.616;39.786;2023-01-16T11:34:00;100256.28;;;-3.89;100.00
49627;BME280;35527;54.616;39.786;2023-01-16T11:37:06;100246.09;;;-3.91;100.00
49627;BME280;35527;54.616;39.786;2023-01-16T11:40:19;100228.63;;;-3.83;100.00
49627;BME280;35527;54.616;39.786;2023-01-16T11:43:25;100251.44;;;-3.80;100.00
49627;BME280;35527;54.616;39.786;2023-01-16T11:46:49;100227.41;;;-3.97;100.00
49627;BME280;35527;54.616;39.786;2023-01-16T11:49:55;100245.28;;;-3.90;100.00
49627;BME280;35527;54.616;39.786;2023-01-16T11:52:58;100259.72;;;-3.86;100.00
49627;BME280;35527;54.616;39.786;2023-01-16T11:56:06;100263.13;;;-3.83;100.00
49627;BME280;35527;54.616;39.786;2023-01-16T12:03:55;100276.66;;;-3.83;100.00
49627;BME280;35527;54.616;39.786;2023-01-16T12:13:07;100270.53;;;-3.91;100.00
49627;BME280;35527;54.616;39.786;2023-01-16T12:20:14;100245.03;;;-3.99;100.00
49627;BME280;35527;54.616;39.786;2023-01-16T12:33:33;100215.38;;;-4.06;100.00
49627;BME280;35527;54.616;39.786;2023-01-16T12:47:19;100258.03;;;-4.17;100.00
49627;BME280;35527;54.616;39.786;2023-01-16T12:57:33;100254.31;;;-3.99;100.00
49627;BME280;35527;54.616;39.786;2023-01-16T13:06:53;100260.78;;;-4.09;100.00
49627;BME280;35527;54.616;39.786;2023-01-16T13:13:29;100272.31;;;-3.87;100.00
49627;BME280;35527;54.616;39.786;2023-01-16T13:19:40;100268.69;;;-3.97;100.00
49627;BME280;35527;54.616;39.786;2023-01-16T13:22:49;100256.38;;;-4.16;100.00
49627;BME280;35527;54.616;39.786;2023-01-16T13:26:03;100263.91;;;-4.18;100.00
49627;BME280;35527;54.616;39.786;2023-01-16T13:29:19;100257.53;;;-4.05;100.00
49627;BME280;35527;54.616;39.786;2023-01-16T13:32:29;100283.19;;;-4.21;100.00
49627;BME280;35527;54.616;39.786;2023-01-16T13:35:51;100261.50;;;-4.13;100.00
49627;BME280;35527;54.616;39.786;2023-01-16T13:42:30;100230.94;;;-4.22;100.00
49627;BME280;35527;54.616;39.786;2023-01-16T13:45:36;100251.25;;;-4.18;100.00
49627;BME280;35527;54.616;39.786;2023-01-16T13:48:52;100265.38;;;-4.26;100.00
49627;BME280;35527;54.616;39.786;2023-01-16T13:52:00;100242.22;;;-4.10;100.00
49627;BME280;35527;54.616;39.786;2023-01-16T13:55:04;100238.91;;;-4.09;100.00
49627;BME280;35527;54.616;39.786;2023-01-16T14:15:52;100269.91;;;-4.14;100.00
49627;BME280;35527;54.616;39.786;2023-01-16T14:20:00;100243.91;;;-4.10;100.00
49627;BME280;35527;54.616;39.786;2023-01-16T14:23:04;100260.03;;;-4.05;100.00
49627;BME280;35527;54.616;39.786;2023-01-16T14:29:59;100228.78;;;-4.09;100.00
49627;BME280;35527;54.616;39.786;2023-01-16T14:33:04;100250.00;;;-4.02;100.00
49627;BME280;35527;54.616;39.786;2023-01-16T14:36:12;100238.00;;;-4.11;100.00
49627;BME280;35527;54.616;39.786;2023-01-16T14:39:31;100227.75;;;-4.15;100.00
49627;BME280;35527;54.616;39.786;2023-01-16T14:42:51;100199.00;;;-4.20;100.00
49627;BME280;35527;54.616;39.786;2023-01-16T14:50:39;100239.22;;;-3.96;100.00
49627;BME280;35527;54.616;39.786;2023-01-16T14:53:25;100231.25;;;-4.12;100.00
49627;BME280;35527;54.616;39.786;2023-01-16T14:56:49;100222.81;;;-4.11;100.00
49627;BME280;35527;54.616;39.786;2023-01-16T15:00:03;100227.13;;;-4.07;100.00
49627;BME280;35527;54.616;39.786;2023-01-16T15:03:13;100246.19;;;-3.88;100.00
49627;BME280;35527;54.616;39.786;2023-01-16T15:06:18;100249.63;;;-3.84;100.00
49627;BME280;35527;54.616;39.786;2023-01-16T15:09:21;100243.72;;;-3.85;100.00
49627;BME280;35527;54.616;39.786;2023-01-16T15:12:42;100242.81;;;-3.88;100.00
49627;BME280;35527;54.616;39.786;2023-01-16T15:19:03;100217.31;;;-3.96;100.00
49627;BME280;35527;54.616;39.786;2023-01-16T15:22:42;100226.53;;;-3.98;100.00
49627;BME280;35527;54.616;39.786;2023-01-16T15:32:27;100191.66;;;-4.11;100.00
49627;BME280;35527;54.616;39.786;2023-01-16T15:35:30;100222.06;;;-4.08;100.00
49627;BME280;35527;54.616;39.786;2023-01-16T15:38:35;100207.81;;;-4.04;100.00
49627;BME280;35527;54.616;39.786;2023-01-16T15:42:15;100194.97;;;-4.12;100.00
49627;BME280;35527;54.616;39.786;2023-01-16T15:45:49;100206.19;;;-4.02;100.00
49627;BME280;35527;54.616;39.786;2023-01-16T15:49:20;100233.41;;;-3.92;100.00
49627;BME280;35527;54.616;39.786;2023-01-16T15:52:34;100226.72;;;-3.90;100.00
49627;BME280;35527;54.616;39.786;2023-01-16T15:55:50;100208.47;;;-3.78;100.00
49627;BME280;35527;54.616;39.786;2023-01-16T15:59:27;100195.53;;;-3.91;100.00
49627;BME280;35527;54.616;39.786;2023-01-16T16:02:41;100198.13;;;-3.89;100.00
49627;BME280;35527;54.616;39.786;2023-01-16T16:05:47;100225.97;;;-3.88;100.00
49627;BME280;35527;54.616;39.786;2023-01-16T16:08:53;100223.47;;;-3.86;100.00
49627;BME280;35527;54.616;39.786;2023-01-16T16:11:56;100171.44;;;-4.11;100.00
49627;BME280;35527;54.616;39.786;2023-01-16T16:15:20;100223.47;;;-3.86;100.00
49627;BME280;35527;54.616;39.786;2023-01-16T16:18:54;100204.97;;;-3.83;100.00
49627;BME280;35527;54.616;39.786;2023-01-16T16:22:02;100211.06;;;-3.77;100.00
49627;BME280;35527;54.616;39.786;2023-01-16T16:25:34;100226.31;;;-3.74;100.00
49627;BME280;35527;54.616;39.786;2023-01-16T16:28:38;100196.38;;;-3.90;100.00
49627;BME280;35527;54.616;39.786;2023-01-16T16:31:42;100193.09;;;-3.88;100.00
49627;BME280;35527;54.616;39.786;2023-01-16T16:34:55;100233.28;;;-3.64;100.00
49627;BME280;35527;54.616;39.786;2023-01-16T16:38:00;100211.28;;;-3.68;100.00
49627;BME280;35527;54.616;39.786;2023-01-16T16:44:21;100209.91;;;-3.55;100.00
49627;BME280;35527;54.616;39.786;2023-01-16T16:47:30;100218.94;;;-3.65;100.00
49627;BME280;35527;54.616;39.786;2023-01-16T16:50:37;100200.25;;;-3.71;100.00
49627;BME280;35527;54.616;39.786;2023-01-16T16:53:44;100207.78;;;-3.73;100.00
49627;BME280;35527;54.616;39.786;2023-01-16T16:56:48;100203.13;;;-3.57;100.00
49627;BME280;35527;54.616;39.786;2023-01-16T16:59:54;100159.03;;;-3.67;100.00
49627;BME280;35527;54.616;39.786;2023-01-16T17:03:24;100185.28;;;-3.62;100.00
49627;BME280;35527;54.616;39.786;2023-01-16T17:06:30;100202.31;;;-3.55;100.00
49627;BME280;35527;54.616;39.786;2023-01-16T17:09:34;100166.34;;;-3.78;100.00
49627;BME280;35527;54.616;39.786;2023-01-16T17:12:38;100168.38;;;-3.65;100.00
49627;BME280;35527;54.616;39.786;2023-01-16T17:15:43;100185.56;;;-3.51;100.00
49627;BME280;35527;54.616;39.786;2023-01-16T17:18:47;100190.69;;;-3.47;100.00
49627;BME280;35527;54.616;39.786;2023-01-16T17:21:51;100185.09;;;-3.70;100.00
49627;BME280;35527;54.616;39.786;2023-01-16T17:24:57;100217.59;;;-3.52;100.00
49627;BME280;35527;54.616;39.786;2023-01-16T17:28:03;100206.59;;;-3.52;100.00
49627;BME280;35527;54.616;39.786;2023-01-16T17:31:12;100182.97;;;-3.54;100.00
49627;BME280;35527;54.616;39.786;2023-01-16T17:34:18;100204.38;;;-3.40;100.00
49627;BME280;35527;54.616;39.786;2023-01-16T17:37:23;100214.34;;;-3.46;100.00
49627;BME280;35527;54.616;39.786;2023-01-16T17:40:26;100177.22;;;-3.47;100.00
49627;BME280;35527;54.616;39.786;2023-01-16T17:43:30;100199.19;;;-3.45;100.00
49627;BME280;35527;54.616;39.786;2023-01-16T17:46:51;100148.91;;;-3.67;100.00
49627;BME280;35527;54.616;39.786;2023-01-16T17:49:55;100165.19;;;-3.57;100.00
49627;BME280;35527;54.616;39.786;2023-01-16T17:53:19;100190.75;;;-3.45;100.00
49627;BME280;35527;54.616;39.786;2023-01-16T17:56:22;100191.59;;;-3.45;100.00
49627;BME280;35527;54.616;39.786;2023-01-16T17:59:26;100171.19;;;-3.52;100.00
49627;BME280;35527;54.616;39.786;2023-01-16T18:02:32;100194.34;;;-3.35;100.00
49627;BME280;35527;54.616;39.786;2023-01-16T18:05:39;100176.41;;;-3.46;100.00
49627;BME280;35527;54.616;39.786;2023-01-16T18:08:42;100156.84;;;-3.53;100.00
49627;BME280;35527;54.616;39.786;2023-01-16T18:11:46;100160.06;;;-3.59;100.00
49627;BME280;35527;54.616;39.786;2023-01-16T18:15:07;100164.28;;;-3.58;100.00
49627;BME280;35527;54.616;39.786;2023-01-16T18:18:29;100211.00;;;-3.45;100.00
49627;BME280;35527;54.616;39.786;2023-01-16T18:21:34;100197.56;;;-3.43;100.00
49627;BME280;35527;54.616;39.786;2023-01-16T18:24:57;100196.72;;;-3.42;100.00
49627;BME280;35527;54.616;39.786;2023-01-16T18:28:03;100200.31;;;-3.33;100.00
49627;BME280;35527;54.616;39.786;2023-01-16T18:31:05;100194.25;;;-3.40;100.00
49627;BME280;35527;54.616;39.786;2023-01-16T18:34:08;100188.28;;;-3.42;100.00
49627;BME280;35527;54.616;39.786;2023-01-16T18:37:13;100212.13;;;-3.32;100.00
49627;BME280;35527;54.616;39.786;2023-01-16T18:40:17;100216.25;;;-3.36;100.00
49627;BME280;35527;54.616;39.786;2023-01-16T18:43:40;100210.47;;;-3.32;100.00
49627;BME280;35527;54.616;39.786;2023-01-16T18:47:02;100206.53;;;-3.19;100.00
49627;BME280;35527;54.616;39.786;2023-01-16T18:50:27;100233.69;;;-3.12;100.00
49627;BME280;35527;54.616;39.786;2023-01-16T18:53:52;100206.66;;;-3.13;100.00
49627;BME280;35527;54.616;39.786;2023-01-16T18:57:16;100189.53;;;-3.25;100.00
49627;BME280;35527;54.616;39.786;2023-01-16T19:00:40;100180.91;;;-3.33;100.00
49627;BME280;35527;54.616;39.786;2023-01-16T19:04:04;100218.34;;;-3.18;100.00
49627;BME280;35527;54.616;39.786;2023-01-16T19:07:15;100181.56;;;-3.42;100.00
49627;BME280;35527;54.616;39.786;2023-01-16T19:10:27;100182.41;;;-3.41;100.00
49627;BME280;35527;54.616;39.786;2023-01-16T19:13:34;100197.06;;;-3.28;100.00